createdAt,value
2022-10-07T00:00:54.225Z,99.48
2022-10-07T00:03:22.206Z,99.48
2022-10-07T00:06:19.917Z,99.67
2022-10-07T00:08:52.010Z,99.23
2022-10-07T00:11:24.507Z,99.80
2022-10-07T00:13:57.340Z,99.55
2022-10-07T00:16:26.244Z,99.24
2022-10-07T00:18:56.502Z,99.70
2022-10-07T00:21:25.192Z,100.00
2022-10-07T00:23:52.395Z,100.00
2022-10-07T00:26:21.735Z,100.00
2022-10-07T00:28:49.200Z,100.00
2022-10-07T00:31:21.252Z,100.00
2022-10-07T00:33:48.854Z,100.00
2022-10-07T00:36:23.729Z,100.00
2022-10-07T00:39:02.598Z,100.00
2022-10-07T00:41:44.885Z,100.00
2022-10-07T00:44:36.586Z,100.00
2022-10-07T00:47:21.819Z,100.00
2022-10-07T00:50:01.112Z,100.00
2022-10-07T00:52:31.314Z,100.00
2022-10-07T00:55:00.935Z,100.00
2022-10-07T00:57:30.226Z,100.00
2022-10-07T00:59:57.408Z,100.00
2022-10-07T01:02:25.440Z,100.00
2022-10-07T01:04:54.580Z,100.00
2022-10-07T01:07:21.829Z,100.00
2022-10-07T01:09:51.650Z,100.00
2022-10-07T01:12:37.108Z,100.00
2022-10-07T01:15:08.279Z,100.00
2022-10-07T01:17:38.753Z,100.00
2022-10-07T01:20:05.420Z,100.00
2022-10-07T01:23:12.125Z,100.00
2022-10-07T01:25:52.841Z,100.00
2022-10-07T01:28:32.143Z,100.00
2022-10-07T01:31:01.720Z,100.00
2022-10-07T01:33:32.943Z,100.00
2022-10-07T01:36:12.824Z,100.00
2022-10-07T01:38:45.468Z,100.00
2022-10-07T01:41:15.146Z,100.00
2022-10-07T01:43:44.737Z,100.00
2022-10-07T01:46:18.469Z,100.00
2022-10-07T01:48:49.028Z,100.00
2022-10-07T01:51:19.236Z,100.00
2022-10-07T01:53:47.299Z,100.00
2022-10-07T01:56:33.133Z,100.00
2022-10-07T01:59:25.091Z,100.00
2022-10-07T02:02:01.098Z,100.00
2022-10-07T02:04:46.870Z,100.00
2022-10-07T02:07:29.485Z,100.00
2022-10-07T02:10:08.209Z,100.00
2022-10-07T02:12:41.645Z,100.00
2022-10-07T02:15:17.152Z,100.00
2022-10-07T02:17:55.218Z,100.00
2022-10-07T02:20:27.009Z,100.00
2022-10-07T02:22:57.505Z,100.00
2022-10-07T02:25:28.253Z,100.00
2022-10-07T02:27:57.884Z,100.00
2022-10-07T02:30:25.834Z,100.00
2022-10-07T02:32:56.529Z,100.00
2022-10-07T02:35:33.084Z,100.00
2022-10-07T02:38:05.753Z,100.00
2022-10-07T02:40:39.922Z,100.00
2022-10-07T02:43:36.491Z,100.00
2022-10-07T02:46:12.002Z,100.00
2022-10-07T02:48:58.907Z,100.00
2022-10-07T02:51:36.561Z,100.00
2022-10-07T02:54:04.884Z,100.00
2022-10-07T02:56:36.529Z,100.00
2022-10-07T02:59:07.375Z,100.00
2022-10-07T03:01:39.941Z,100.00
2022-10-07T03:04:07.293Z,100.00
2022-10-07T03:06:35.941Z,100.00
2022-10-07T03:09:03.894Z,100.00
2022-10-07T03:11:31.125Z,100.00
2022-10-07T03:13:58.483Z,100.00
2022-10-07T03:16:25.573Z,100.00
2022-10-07T03:18:52.368Z,100.00
2022-10-07T03:21:33.549Z,100.00
2022-10-07T03:24:05.244Z,100.00
2022-10-07T03:26:37.889Z,100.00
2022-10-07T03:29:05.501Z,100.00
2022-10-07T03:31:32.357Z,100.00
2022-10-07T03:34:00.625Z,100.00
2022-10-07T03:36:28.239Z,100.00
2022-10-07T03:38:55.702Z,100.00
2022-10-07T03:41:24.388Z,100.00
2022-10-07T03:43:57.522Z,100.00
2022-10-07T03:46:25.449Z,100.00
2022-10-07T03:48:52.641Z,99.98
2022-10-07T03:51:21.788Z,99.47
2022-10-07T03:53:49.354Z,100.00
2022-10-07T03:56:16.713Z,100.00
2022-10-07T03:58:43.939Z,100.00
2022-10-07T04:01:15.208Z,100.00
2022-10-07T04:03:52.555Z,100.00
2022-10-07T04:06:19.832Z,100.00
2022-10-07T04:08:52.061Z,100.00
2022-10-07T04:11:19.105Z,100.00
2022-10-07T04:13:46.664Z,100.00
2022-10-07T04:16:14.017Z,100.00
2022-10-07T04:18:42.070Z,100.00
2022-10-07T04:21:09.996Z,100.00
2022-10-07T04:23:37.481Z,100.00
2022-10-07T04:26:11.700Z,100.00
2022-10-07T04:28:42.882Z,100.00
2022-10-07T04:31:17.232Z,100.00
2022-10-07T04:33:51.921Z,100.00
2022-10-07T04:36:25.398Z,100.00
2022-10-07T04:39:00.028Z,100.00
2022-10-07T04:41:31.241Z,100.00
2022-10-07T04:43:58.286Z,100.00
2022-10-07T04:46:28.762Z,100.00
2022-10-07T04:49:10.630Z,100.00
2022-10-07T04:51:37.776Z,100.00
2022-10-07T04:54:05.058Z,100.00
2022-10-07T04:56:38.367Z,100.00
2022-10-07T04:59:07.848Z,100.00
2022-10-07T05:01:36.491Z,100.00
2022-10-07T05:04:03.698Z,100.00
2022-10-07T05:06:32.926Z,100.00
2022-10-07T05:08:59.850Z,100.00
2022-10-07T05:11:27.004Z,100.00
2022-10-07T05:14:01.918Z,100.00
2022-10-07T05:16:30.404Z,100.00
2022-10-07T05:18:58.084Z,100.00
2022-10-07T05:21:25.003Z,100.00
2022-10-07T05:23:52.384Z,100.00
2022-10-07T05:26:24.904Z,100.00
2022-10-07T05:28:56.616Z,100.00
2022-10-07T05:31:29.995Z,100.00
2022-10-07T05:34:00.722Z,100.00
2022-10-07T05:36:28.316Z,100.00
2022-10-07T05:38:58.156Z,97.70
2022-10-07T05:41:30.962Z,95.84
2022-10-07T05:44:01.365Z,92.03
2022-10-07T05:46:28.322Z,89.39
2022-10-07T05:48:58.072Z,87.83
2022-10-07T05:51:30.716Z,85.50
2022-10-07T05:53:59.174Z,85.59
2022-10-07T05:56:32.708Z,81.97
2022-10-07T05:58:59.558Z,81.53
2022-10-07T06:01:29.165Z,79.76
2022-10-07T06:03:58.800Z,81.45
2022-10-07T06:06:30.256Z,80.81
2022-10-07T06:09:19.952Z,77.65
2022-10-07T06:12:06.309Z,79.20
2022-10-07T06:14:35.002Z,71.61
2022-10-07T06:17:01.903Z,71.99
2022-10-07T06:19:29.083Z,70.35
2022-10-07T06:21:59.500Z,65.45
2022-10-07T06:24:27.172Z,65.05
2022-10-07T06:26:55.972Z,62.64
2022-10-07T06:29:24.010Z,56.94
2022-10-07T06:31:51.122Z,55.66
2022-10-07T06:34:19.332Z,55.47
2022-10-07T06:36:46.498Z,52.52
2022-10-07T06:39:16.429Z,51.05
2022-10-07T06:41:43.766Z,50.02
2022-10-07T06:44:36.643Z,54.62
2022-10-07T06:47:07.768Z,47.72
2022-10-07T06:49:38.816Z,44.76
2022-10-07T06:52:05.643Z,46.46
2022-10-07T06:54:34.152Z,48.85
2022-10-07T06:57:00.895Z,43.89
2022-10-07T06:59:28.226Z,43.12
2022-10-07T07:02:01.999Z,46.06
2022-10-07T07:04:32.233Z,41.26
2022-10-07T07:06:59.087Z,43.31
2022-10-07T07:09:26.149Z,40.49
2022-10-07T07:11:56.425Z,38.20
2022-10-07T07:14:35.096Z,38.79
2022-10-07T07:17:09.947Z,34.87
2022-10-07T07:19:37.151Z,35.11
2022-10-07T07:22:04.140Z,34.48
2022-10-07T07:24:31.076Z,35.73
2022-10-07T07:26:58.047Z,34.00
2022-10-07T07:29:27.590Z,33.76
2022-10-07T07:31:59.949Z,33.45
2022-10-07T07:34:30.292Z,32.05
2022-10-07T07:36:57.506Z,31.67
2022-10-07T07:39:29.863Z,32.85
2022-10-07T07:42:06.155Z,31.17
2022-10-07T07:44:34.878Z,31.62
2022-10-07T07:47:03.977Z,30.84
2022-10-07T07:49:32.305Z,30.09
2022-10-07T07:51:59.933Z,29.16
2022-10-07T07:54:31.250Z,30.18
2022-10-07T07:56:58.176Z,31.24
2022-10-07T07:59:28.178Z,30.86
2022-10-07T08:01:57.871Z,29.07
2022-10-07T08:04:25.042Z,28.47
2022-10-07T08:06:52.341Z,28.93
2022-10-07T08:09:19.808Z,27.49
2022-10-07T08:11:48.281Z,29.08
2022-10-07T08:14:17.585Z,29.65
2022-10-07T08:16:47.410Z,28.29
2022-10-07T08:19:15.371Z,27.45
2022-10-07T08:21:42.558Z,27.77
2022-10-07T08:24:14.643Z,27.38
2022-10-07T08:26:41.471Z,27.15
2022-10-07T08:29:13.527Z,26.28
2022-10-07T08:31:42.642Z,26.30
2022-10-07T08:34:10.993Z,25.50
2022-10-07T08:36:38.331Z,24.47
2022-10-07T08:39:06.032Z,24.79
2022-10-07T08:41:39.453Z,23.05
2022-10-07T08:44:18.048Z,25.23
2022-10-07T08:46:57.662Z,25.24
2022-10-07T08:49:36.078Z,25.37
2022-10-07T08:52:25.596Z,22.79
2022-10-07T08:54:53.234Z,24.97
2022-10-07T08:57:32.428Z,26.06
2022-10-07T09:00:03.828Z,25.57
2022-10-07T09:02:46.868Z,25.21
2022-10-07T09:05:26.946Z,25.70
2022-10-07T09:08:01.216Z,24.93
2022-10-07T09:10:49.614Z,24.76
2022-10-07T09:13:20.658Z,24.36
2022-10-07T09:16:19.880Z,23.17
2022-10-07T09:18:53.960Z,23.59
2022-10-07T09:21:25.578Z,23.08
2022-10-07T09:23:57.218Z,22.16
2022-10-07T09:26:27.002Z,22.29
2022-10-07T09:28:53.864Z,21.70
2022-10-07T09:31:23.824Z,22.21
2022-10-07T09:33:53.029Z,22.02
2022-10-07T09:36:20.249Z,22.43
2022-10-07T09:38:50.402Z,21.74
2022-10-07T09:41:31.029Z,21.14
2022-10-07T09:44:16.335Z,21.01
2022-10-07T09:46:53.336Z,21.02
2022-10-07T09:49:29.136Z,20.75
2022-10-07T09:52:06.831Z,20.19
2022-10-07T09:54:37.089Z,19.64
2022-10-07T09:57:06.083Z,19.80
2022-10-07T09:59:35.539Z,19.37
2022-10-07T10:02:21.017Z,19.34
2022-10-07T10:04:53.840Z,18.87
2022-10-07T10:07:29.676Z,19.07
2022-10-07T10:10:21.661Z,19.08
2022-10-07T10:12:50.009Z,18.92
2022-10-07T10:15:26.027Z,18.37
2022-10-07T10:17:57.146Z,18.78
2022-10-07T10:20:23.787Z,18.60
2022-10-07T10:22:51.672Z,18.09
2022-10-07T10:25:51.378Z,17.77
2022-10-07T10:28:30.053Z,17.78
2022-10-07T10:31:06.854Z,18.18
2022-10-07T10:33:44.662Z,18.03
2022-10-07T10:36:27.102Z,18.06
2022-10-07T10:39:04.242Z,17.94
2022-10-07T10:41:43.230Z,17.78
2022-10-07T10:44:20.389Z,17.56
2022-10-07T10:47:07.464Z,18.12
2022-10-07T10:50:19.223Z,17.62
2022-10-07T10:53:33.397Z,18.06
2022-10-07T10:56:21.620Z,18.38
2022-10-07T10:59:05.047Z,17.09
2022-10-07T11:01:37.678Z,18.10
2022-10-07T11:04:25.861Z,18.30
2022-10-07T11:07:04.867Z,18.51
2022-10-07T11:09:46.653Z,18.94
2022-10-07T11:12:34.232Z,17.31
2022-10-07T11:15:13.816Z,17.40
2022-10-07T11:17:40.893Z,18.27
2022-10-07T11:20:29.396Z,18.16
2022-10-07T11:23:02.687Z,18.74
2022-10-07T11:25:36.818Z,18.44
2022-10-07T11:28:26.541Z,18.31
2022-10-07T11:31:05.325Z,19.06
2022-10-07T11:33:43.247Z,18.57
2022-10-07T11:36:16.311Z,18.37
2022-10-07T11:38:44.326Z,18.37
2022-10-07T11:41:16.569Z,18.44
2022-10-07T11:43:49.668Z,18.61
2022-10-07T11:46:22.254Z,18.66
2022-10-07T11:48:59.760Z,18.51
2022-10-07T11:51:35.151Z,18.06
2022-10-07T11:54:06.474Z,18.22
2022-10-07T11:56:49.464Z,18.50
2022-10-07T11:59:38.244Z,18.54
2022-10-07T12:02:30.630Z,18.83
2022-10-07T12:04:59.653Z,17.24
2022-10-07T12:07:35.197Z,17.59
2022-10-07T12:10:01.972Z,17.60
2022-10-07T12:12:47.725Z,17.51
2022-10-07T12:15:33.254Z,18.04
2022-10-07T12:18:04.491Z,17.58
2022-10-07T12:20:45.136Z,17.62
2022-10-07T12:23:20.840Z,17.66
2022-10-07T12:26:03.102Z,18.30
2022-10-07T12:28:37.021Z,19.62
2022-10-07T12:31:16.301Z,20.65
2022-10-07T12:33:45.993Z,22.23
2022-10-07T12:36:18.740Z,24.11
2022-10-07T12:39:08.361Z,25.19
2022-10-07T12:41:45.317Z,26.22
2022-10-07T12:44:36.310Z,27.69
2022-10-07T12:47:08.457Z,28.45
2022-10-07T12:49:37.618Z,30.50
2022-10-07T12:52:12.241Z,31.32
2022-10-07T12:54:47.974Z,32.54
2022-10-07T12:57:23.255Z,32.44
2022-10-07T13:00:15.054Z,33.95
2022-10-07T13:02:58.742Z,34.25
2022-10-07T13:06:02.972Z,35.37
2022-10-07T13:08:42.180Z,35.46
2022-10-07T13:11:28.561Z,35.80
2022-10-07T13:14:19.162Z,36.39
2022-10-07T13:17:18.281Z,37.53
2022-10-07T13:19:51.233Z,37.83
2022-10-07T13:22:19.194Z,37.67
2022-10-07T13:24:49.954Z,37.62
2022-10-07T13:27:35.017Z,37.82
2022-10-07T13:30:04.410Z,37.74
2022-10-07T13:32:34.325Z,37.50
2022-10-07T13:35:29.985Z,38.87
2022-10-07T13:37:57.116Z,38.86
2022-10-07T13:40:35.825Z,38.77
2022-10-07T13:43:08.103Z,38.90
2022-10-07T13:45:45.113Z,39.35
2022-10-07T13:48:22.220Z,39.53
2022-10-07T13:50:50.907Z,39.63
2022-10-07T13:53:31.969Z,39.76
2022-10-07T13:56:05.723Z,40.49
2022-10-07T13:58:33.636Z,40.28
2022-10-07T14:01:03.989Z,41.11
2022-10-07T14:03:30.828Z,40.96
2022-10-07T14:05:57.821Z,41.55
2022-10-07T14:08:29.458Z,41.73
2022-10-07T14:10:59.633Z,42.34
2022-10-07T14:13:29.314Z,42.28
2022-10-07T14:15:57.918Z,42.79
2022-10-07T14:18:27.636Z,43.12
2022-10-07T14:20:57.843Z,43.50
2022-10-07T14:23:31.504Z,44.21
2022-10-07T14:26:06.723Z,44.35
2022-10-07T14:28:38.000Z,44.37
2022-10-07T14:31:23.444Z,44.50
2022-10-07T14:34:16.844Z,44.69
2022-10-07T14:37:10.241Z,45.34
2022-10-07T14:39:38.568Z,45.22
2022-10-07T14:42:10.451Z,45.69
2022-10-07T14:44:37.650Z,45.99
2022-10-07T14:47:13.320Z,47.04
2022-10-07T14:49:42.339Z,47.44
2022-10-07T14:52:21.604Z,47.43
2022-10-07T14:54:49.117Z,47.52
2022-10-07T14:57:15.865Z,48.38
2022-10-07T14:59:42.645Z,48.90
2022-10-07T15:02:12.743Z,49.41
2022-10-07T15:04:40.414Z,49.97
2022-10-07T15:07:07.606Z,50.88
2022-10-07T15:09:34.522Z,52.08
2022-10-07T15:12:01.382Z,52.85
2022-10-07T15:14:28.372Z,53.64
2022-10-07T15:16:58.663Z,53.95
2022-10-07T15:19:26.489Z,54.70
2022-10-07T15:21:53.852Z,55.90
2022-10-07T15:24:20.691Z,56.27
2022-10-07T15:26:47.455Z,57.22
2022-10-07T15:29:15.182Z,58.33
2022-10-07T15:31:43.223Z,59.33
2022-10-07T15:34:10.701Z,60.31
2022-10-07T15:36:37.889Z,61.08
2022-10-07T15:39:05.117Z,61.97
2022-10-07T15:41:37.436Z,62.63
2022-10-07T15:44:11.670Z,66.84
2022-10-07T15:46:38.778Z,72.81
2022-10-07T15:49:05.844Z,75.32
2022-10-07T15:51:32.766Z,77.31
2022-10-07T15:53:59.841Z,78.87
2022-10-07T15:56:26.757Z,80.36
2022-10-07T15:58:53.492Z,81.13
2022-10-07T16:01:20.917Z,82.53
2022-10-07T16:03:49.140Z,83.37
2022-10-07T16:06:20.303Z,83.66
2022-10-07T16:08:48.060Z,84.03
2022-10-07T16:11:15.223Z,85.00
2022-10-07T16:13:44.294Z,85.07
2022-10-07T16:16:32.683Z,85.59
2022-10-07T16:19:00.769Z,85.67
2022-10-07T16:21:33.256Z,86.39
2022-10-07T16:24:06.406Z,88.13
2022-10-07T16:26:35.746Z,88.19
2022-10-07T16:29:23.616Z,88.97
2022-10-07T16:31:55.926Z,89.45
2022-10-07T16:34:25.711Z,89.96
2022-10-07T16:36:52.975Z,89.74
2022-10-07T16:39:21.487Z,90.67
2022-10-07T16:41:49.611Z,91.32
2022-10-07T16:44:16.497Z,91.38
2022-10-07T16:46:43.828Z,90.87
2022-10-07T16:49:17.979Z,91.90
2022-10-07T16:51:46.044Z,91.27
2022-10-07T16:54:16.021Z,91.30
2022-10-07T16:56:48.565Z,92.05
2022-10-07T16:59:24.113Z,92.39
2022-10-07T17:01:56.093Z,91.47
2022-10-07T17:04:24.544Z,91.24
2022-10-07T17:06:51.683Z,91.07
2022-10-07T17:09:18.706Z,90.88
2022-10-07T17:11:45.671Z,90.80
2022-10-07T17:14:21.129Z,91.23
2022-10-07T17:16:53.433Z,91.61
2022-10-07T17:19:23.279Z,91.86
2022-10-07T17:21:51.227Z,92.02
2022-10-07T17:24:20.057Z,92.58
2022-10-07T17:26:47.435Z,92.99
2022-10-07T17:29:18.136Z,93.61
2022-10-07T17:31:48.262Z,93.90
2022-10-07T17:34:16.249Z,94.99
2022-10-07T17:36:43.945Z,95.34
2022-10-07T17:39:11.332Z,95.84
2022-10-07T17:41:38.890Z,96.04
2022-10-07T17:44:11.675Z,95.48
2022-10-07T17:46:39.563Z,95.38
2022-10-07T17:49:08.799Z,95.65
2022-10-07T17:51:37.287Z,95.54
2022-10-07T17:54:05.900Z,95.17
2022-10-07T17:56:34.301Z,94.96
2022-10-07T17:59:01.998Z,94.30
2022-10-07T18:01:32.787Z,93.68
2022-10-07T18:04:07.932Z,93.81
2022-10-07T18:06:36.597Z,94.12
2022-10-07T18:09:13.514Z,94.46
2022-10-07T18:11:58.873Z,95.18
2022-10-07T18:14:44.426Z,96.26
2022-10-07T18:17:11.345Z,96.68
2022-10-07T18:19:39.814Z,97.41
2022-10-07T18:22:07.164Z,97.55
2022-10-07T18:24:34.265Z,97.00
2022-10-07T18:27:01.565Z,96.02
2022-10-07T18:29:34.159Z,95.04
2022-10-07T18:32:01.259Z,95.06
2022-10-07T18:34:28.249Z,95.39
2022-10-07T18:36:56.988Z,94.86
2022-10-07T18:39:27.278Z,94.21
2022-10-07T18:41:54.421Z,94.50
2022-10-07T18:44:21.416Z,94.64
2022-10-07T18:46:48.651Z,94.77
2022-10-07T18:49:15.621Z,95.11
2022-10-07T18:51:42.884Z,95.05
2022-10-07T18:54:10.642Z,95.27
2022-10-07T18:56:41.141Z,95.19
2022-10-07T18:59:10.047Z,95.05
2022-10-07T19:01:37.907Z,95.19
2022-10-07T19:04:07.242Z,95.04
2022-10-07T19:06:36.487Z,95.26
2022-10-07T19:09:06.593Z,95.00
2022-10-07T19:11:33.881Z,94.71
2022-10-07T19:14:01.726Z,94.91
2022-10-07T19:16:36.836Z,96.26
2022-10-07T19:19:09.163Z,96.99
2022-10-07T19:21:35.990Z,97.07
2022-10-07T19:24:04.388Z,96.88
2022-10-07T19:26:37.791Z,96.74
2022-10-07T19:29:06.465Z,96.90
2022-10-07T19:31:36.254Z,96.67
2022-10-07T19:34:06.291Z,96.54
2022-10-07T19:36:36.221Z,96.83
2022-10-07T19:39:04.322Z,96.58
2022-10-07T19:41:33.405Z,96.42
2022-10-07T19:44:00.147Z,95.89
2022-10-07T19:46:30.214Z,95.52
2022-10-07T19:48:58.887Z,95.95
2022-10-07T19:51:28.472Z,96.13
2022-10-07T19:53:57.378Z,96.63
2022-10-07T19:56:28.226Z,96.34
2022-10-07T19:59:00.602Z,97.25
2022-10-07T20:01:29.435Z,97.02
2022-10-07T20:03:57.851Z,96.13
2022-10-07T20:06:25.257Z,96.70
2022-10-07T20:08:53.038Z,97.06
2022-10-07T20:11:20.796Z,96.49
2022-10-07T20:13:47.605Z,96.70
2022-10-07T20:16:19.841Z,96.27
2022-10-07T20:18:48.720Z,95.78
2022-10-07T20:21:19.061Z,95.68
2022-10-07T20:23:48.161Z,96.38
2022-10-07T20:26:20.390Z,97.25
2022-10-07T20:28:49.289Z,97.23
2022-10-07T20:31:19.140Z,96.79
2022-10-07T20:33:48.721Z,96.58
2022-10-07T20:36:18.904Z,96.24
2022-10-07T20:39:06.232Z,95.54
2022-10-07T20:41:51.638Z,95.50
2022-10-07T20:44:18.434Z,96.57
2022-10-07T20:46:45.145Z,96.83
2022-10-07T20:49:25.214Z,96.91
2022-10-07T20:51:54.306Z,96.55
2022-10-07T20:54:22.907Z,97.02
2022-10-07T20:56:54.000Z,96.54
2022-10-07T20:59:21.111Z,96.49
2022-10-07T21:01:48.283Z,96.37
2022-10-07T21:04:15.840Z,95.94
2022-10-07T21:06:43.601Z,96.47
2022-10-07T21:09:11.077Z,96.50
2022-10-07T21:11:38.270Z,96.91
2022-10-07T21:14:05.103Z,97.57
2022-10-07T21:16:35.177Z,96.77
2022-10-07T21:19:02.015Z,97.08
2022-10-07T21:21:29.010Z,96.30
2022-10-07T21:23:55.897Z,96.16
2022-10-07T21:26:22.896Z,95.38
2022-10-07T21:28:49.656Z,95.41
2022-10-07T21:31:19.051Z,95.67
2022-10-07T21:33:48.790Z,96.02
2022-10-07T21:36:17.953Z,95.57
2022-10-07T21:38:46.440Z,95.33
2022-10-07T21:41:20.278Z,94.90
2022-10-07T21:43:54.610Z,95.25
2022-10-07T21:46:23.233Z,95.03
2022-10-07T21:48:50.393Z,96.19
2022-10-07T21:51:17.562Z,95.63
2022-10-07T21:53:45.744Z,96.22
2022-10-07T21:56:13.568Z,96.74
2022-10-07T21:58:40.292Z,96.89
2022-10-07T22:01:11.758Z,97.14
2022-10-07T22:03:38.742Z,97.73
2022-10-07T22:06:08.096Z,97.43
2022-10-07T22:08:35.449Z,97.26
2022-10-07T22:11:04.746Z,97.51
2022-10-07T22:13:40.339Z,97.45
2022-10-07T22:16:12.377Z,97.39
2022-10-07T22:18:39.233Z,96.81
2022-10-07T22:21:15.378Z,96.20
2022-10-07T22:23:43.564Z,95.59
2022-10-07T22:26:15.088Z,95.61
2022-10-07T22:28:41.888Z,95.27
2022-10-07T22:31:11.054Z,95.65
2022-10-07T22:33:41.142Z,96.23
2022-10-07T22:36:10.561Z,96.11
2022-10-07T22:38:37.507Z,96.01
2022-10-07T22:41:05.415Z,96.41
2022-10-07T22:43:36.468Z,96.57
2022-10-07T22:46:03.896Z,96.17
2022-10-07T22:48:32.322Z,96.06
2022-10-07T22:51:08.374Z,96.29
2022-10-07T22:53:36.892Z,96.20
2022-10-07T22:56:11.317Z,96.15
2022-10-07T22:58:39.246Z,96.15
2022-10-07T23:01:07.931Z,95.91
2022-10-07T23:03:38.346Z,95.85
2022-10-07T23:06:08.245Z,96.01
2022-10-07T23:08:35.552Z,95.71
2022-10-07T23:11:03.852Z,95.63
2022-10-07T23:13:37.462Z,95.90
2022-10-07T23:16:12.643Z,96.12
2022-10-07T23:18:42.645Z,96.52
2022-10-07T23:21:14.971Z,96.37
2022-10-07T23:23:44.962Z,96.79
2022-10-07T23:26:16.270Z,96.81
2022-10-07T23:28:43.094Z,96.39
2022-10-07T23:31:14.095Z,96.54
2022-10-07T23:33:41.138Z,96.49
2022-10-07T23:36:10.516Z,96.20
2022-10-07T23:38:39.030Z,96.03
2022-10-07T23:41:07.096Z,95.82
2022-10-07T23:43:34.442Z,95.43
2022-10-07T23:46:02.537Z,95.07
2022-10-07T23:48:35.137Z,95.82
2022-10-07T23:51:03.892Z,96.09
2022-10-07T23:53:31.412Z,96.08
2022-10-07T23:55:58.657Z,95.42
2022-10-07T23:58:27.885Z,95.17
